sensor_id;sensor_type;location;lat;lon;timestamp;pressure;altitude;pressure_sealevel;temperature;humidity
33506;BME280;19843;51.040;13.782;2022-11-15T00:00:49;133982.59;;;7.76;100.00
33506;BME280;19843;51.040;13.782;2022-11-15T00:03:18;133640.19;;;7.77;100.00
33506;BME280;19843;51.040;13.782;2022-11-15T00:05:46;137067.63;;;7.73;100.00
33506;BME280;19843;51.040;13.782;2022-11-15T00:08:14;138102.72;;;7.74;100.00
33506;BME280;19843;51.040;13.782;2022-11-15T00:10:42;136726.16;;;7.74;100.00
33506;BME280;19843;51.040;13.782;2022-11-15T00:13:12;131230.91;;;7.74;100.00
33506;BME280;19843;51.040;13.782;2022-11-15T00:15:40;136396.22;;;7.80;100.00
33506;BME280;19843;51.040;13.782;2022-11-15T00:18:13;130913.09;;;7.86;100.00
33506;BME280;19843;51.040;13.782;2022-11-15T00:20:42;132617.66;;;7.80;100.00
33506;BME280;19843;51.040;13.782;2022-11-15T00:23:10;138105.06;;;7.75;100.00
33506;BME280;19843;51.040;13.782;2022-11-15T00:25:37;131246.44;;;7.81;100.00
33506;BME280;19843;51.040;13.782;2022-11-15T00:28:05;130567.63;;;7.85;100.00
33506;BME280;19843;51.040;13.782;2022-11-15T00:30:32;131955.41;;;7.91;100.00
33506;BME280;19843;51.040;13.782;2022-11-15T00:33:04;136759.66;;;7.88;100.00
33506;BME280;19843;51.040;13.782;2022-11-15T00:36:01;137093.13;;;7.84;100.00
33506;BME280;19843;51.040;13.782;2022-11-15T00:38:30;135711.00;;;7.81;100.00
33506;BME280;19843;51.040;13.782;2022-11-15T00:40:58;134005.22;;;7.86;100.00
33506;BME280;19843;51.040;13.782;2022-11-15T00:43:34;136746.94;;;7.83;100.00
33506;BME280;19843;51.040;13.782;2022-11-15T00:46:02;137085.03;;;7.80;100.00
33506;BME280;19843;51.040;13.782;2022-11-15T00:48:30;136038.63;;;7.74;100.00
33506;BME280;19843;51.040;13.782;2022-11-15T00:50:57;132946.50;;;7.74;100.00
33506;BME280;19843;51.040;13.782;2022-11-15T00:53:26;133970.13;;;7.71;100.00
33506;BME280;19843;51.040;13.782;2022-11-15T00:55:55;133624.38;;;7.70;100.00
33506;BME280;19843;51.040;13.782;2022-11-15T00:58:22;138089.88;;;7.69;100.00
33506;BME280;19843;51.040;13.782;2022-11-15T01:00:50;137060.69;;;7.70;100.00
33506;BME280;19843;51.040;13.782;2022-11-15T01:03:17;136027.13;;;7.69;100.00
33506;BME280;19843;51.040;13.782;2022-11-15T01:05:45;137053.75;;;7.67;100.00
33506;BME280;19843;51.040;13.782;2022-11-15T01:08:14;132930.78;;;7.67;100.00
33506;BME280;19843;51.040;13.782;2022-11-15T01:10:43;136025.97;;;7.68;100.00
33506;BME280;19843;51.040;13.782;2022-11-15T01:13:11;135683.47;;;7.69;100.00
33506;BME280;19843;51.040;13.782;2022-11-15T01:15:39;134313.66;;;7.71;100.00
33506;BME280;19843;51.040;13.782;2022-11-15T01:18:07;134989.38;;;7.66;100.00
33506;BME280;19843;51.040;13.782;2022-11-15T01:20:39;132931.88;;;7.67;100.00
33506;BME280;19843;51.040;13.782;2022-11-15T01:23:06;134296.59;;;7.63;100.00
33506;BME280;19843;51.040;13.782;2022-11-15T01:25:34;132944.22;;;7.73;100.00
33506;BME280;19843;51.040;13.782;2022-11-15T01:28:03;128482.63;;;7.73;100.00
33506;BME280;19843;51.040;13.782;2022-11-15T01:30:30;132614.28;;;7.79;100.00
33506;BME280;19843;51.040;13.782;2022-11-15T01:32:58;129188.34;;;7.82;100.00
33506;BME280;19843;51.040;13.782;2022-11-15T01:35:26;133303.44;;;7.80;100.00
33506;BME280;19843;51.040;13.782;2022-11-15T01:37:53;132631.13;;;7.86;100.00
33506;BME280;19843;51.040;13.782;2022-11-15T01:40:21;128862.66;;;7.90;100.00
33506;BME280;19843;51.040;13.782;2022-11-15T01:42:48;133665.00;;;7.88;100.00
33506;BME280;19843;51.040;13.782;2022-11-15T01:45:17;133329.38;;;7.91;100.00
33506;BME280;19843;51.040;13.782;2022-11-15T01:47:46;129199.25;;;7.87;100.00
33506;BME280;19843;51.040;13.782;2022-11-15T01:50:18;133649.22;;;7.81;100.00
33506;BME280;19843;51.040;13.782;2022-11-15T01:52:47;131267.50;;;7.91;100.00
33506;BME280;19843;51.040;13.782;2022-11-15T01:55:18;134013.13;;;7.90;100.00
33506;BME280;19843;51.040;13.782;2022-11-15T01:57:49;133683.09;;;7.96;100.00
33506;BME280;19843;51.040;13.782;2022-11-15T02:00:19;131958.75;;;7.93;100.00
33506;BME280;19843;51.040;13.782;2022-11-15T02:02:47;135047.56;;;7.91;100.00
33506;BME280;19843;51.040;13.782;2022-11-15T02:05:15;127835.63;;;7.91;100.00
33506;BME280;19843;51.040;13.782;2022-11-15T02:07:42;130933.00;;;7.95;100.00
33506;BME280;19843;51.040;13.782;2022-11-15T02:10:13;135053.25;;;7.94;100.00
33506;BME280;19843;51.040;13.782;2022-11-15T02:12:41;131956.53;;;7.92;100.00
33506;BME280;19843;51.040;13.782;2022-11-15T02:15:09;131277.47;;;7.95;100.00
33506;BME280;19843;51.040;13.782;2022-11-15T02:17:51;134013.13;;;7.90;100.00
33506;BME280;19843;51.040;13.782;2022-11-15T02:20:41;132995.94;;;7.96;100.00
33506;BME280;19843;51.040;13.782;2022-11-15T02:23:33;135401.59;;;7.96;100.00
33506;BME280;19843;51.040;13.782;2022-11-15T02:26:22;136063.94;;;7.85;100.00
33506;BME280;19843;51.040;13.782;2022-11-15T02:28:57;130233.19;;;7.89;100.00
33506;BME280;19843;51.040;13.782;2022-11-15T02:31:30;135032.72;;;7.85;100.00
33506;BME280;19843;51.040;13.782;2022-11-15T02:34:08;134686.78;;;7.84;100.00
33506;BME280;19843;51.040;13.782;2022-11-15T02:36:43;134678.81;;;7.80;100.00
33506;BME280;19843;51.040;13.782;2022-11-15T02:39:19;129521.63;;;7.77;100.00
33506;BME280;19843;51.040;13.782;2022-11-15T02:41:51;133651.50;;;7.82;100.00
33506;BME280;19843;51.040;13.782;2022-11-15T02:44:24;133642.41;;;7.78;100.00
33506;BME280;19843;51.040;13.782;2022-11-15T02:46:57;129880.06;;;7.84;100.00
33506;BME280;19843;51.040;13.782;2022-11-15T02:49:43;133304.56;;;7.80;100.00
33506;BME280;19843;51.040;13.782;2022-11-15T02:52:14;132630.00;;;7.86;100.00
33506;BME280;19843;51.040;13.782;2022-11-15T02:54:42;129881.19;;;7.85;100.00
33506;BME280;19843;51.040;13.782;2022-11-15T02:57:13;130543.34;;;7.74;100.00
33506;BME280;19843;51.040;13.782;2022-11-15T02:59:56;132968.97;;;7.84;100.00
33506;BME280;19843;51.040;13.782;2022-11-15T03:02:39;130204.59;;;7.76;100.00
33506;BME280;19843;51.040;13.782;2022-11-15T03:05:17;133637.94;;;7.76;100.00
33506;BME280;19843;51.040;13.782;2022-11-15T03:07:53;130897.63;;;7.79;100.00
33506;BME280;19843;51.040;13.782;2022-11-15T03:10:32;133292.19;;;7.75;100.00
33506;BME280;19843;51.040;13.782;2022-11-15T03:13:10;133294.44;;;7.76;100.00
33506;BME280;19843;51.040;13.782;2022-11-15T03:15:45;133970.13;;;7.71;100.00
33506;BME280;19843;51.040;13.782;2022-11-15T03:18:22;133615.34;;;7.66;100.00
33506;BME280;19843;51.040;13.782;2022-11-15T03:20:53;130169.38;;;7.59;100.00
33506;BME280;19843;51.040;13.782;2022-11-15T03:23:23;132578.44;;;7.62;100.00
33506;BME280;19843;51.040;13.782;2022-11-15T03:25:52;132917.31;;;7.60;100.00
33506;BME280;19843;51.040;13.782;2022-11-15T03:28:23;127419.38;;;7.56;100.00
33506;BME280;19843;51.040;13.782;2022-11-15T03:30:54;131530.84;;;7.54;100.00
33506;BME280;19843;51.040;13.782;2022-11-15T03:33:24;130834.59;;;7.50;100.00
33506;BME280;19843;51.040;13.782;2022-11-15T03:35:52;131177.69;;;7.50;100.00
33506;BME280;19843;51.040;13.782;2022-11-15T03:38:23;128782.09;;;7.52;100.00
33506;BME280;19843;51.040;13.782;2022-11-15T03:40:54;128123.44;;;7.65;100.00
33506;BME280;19843;51.040;13.782;2022-11-15T03:43:30;129824.13;;;7.58;100.00
33506;BME280;19843;51.040;13.782;2022-11-15T03:46:04;129110.81;;;7.46;100.00
33506;BME280;19843;51.040;13.782;2022-11-15T03:48:41;129807.66;;;7.51;100.00
33506;BME280;19843;51.040;13.782;2022-11-15T03:51:11;129125.03;;;7.52;100.00
33506;BME280;19843;51.040;13.782;2022-11-15T03:53:40;129452.69;;;7.45;100.00
33506;BME280;19843;51.040;13.782;2022-11-15T03:56:08;126366.63;;;7.45;100.00
33506;BME280;19843;51.040;13.782;2022-11-15T03:58:35;127410.75;;;7.52;100.00
33506;BME280;19843;51.040;13.782;2022-11-15T04:01:03;127400.00;;;7.47;100.00
33506;BME280;19843;51.040;13.782;2022-11-15T04:03:31;126371.94;;;7.47;100.00
33506;BME280;19843;51.040;13.782;2022-11-15T04:06:00;126016.53;;;7.41;100.00
33506;BME280;19843;51.040;13.782;2022-11-15T04:08:28;127036.88;;;7.38;100.00
33506;BME280;19843;51.040;13.782;2022-11-15T04:10:55;127723.34;;;7.38;100.00
33506;BME280;19843;51.040;13.782;2022-11-15T04:13:23;126356.97;;;7.40;100.00
33506;BME280;19843;51.040;13.782;2022-11-15T04:15:51;125337.81;;;7.44;100.00
33506;BME280;19843;51.040;13.782;2022-11-15T04:18:19;126012.28;;;7.39;100.00
33506;BME280;19843;51.040;13.782;2022-11-15T04:20:46;127723.34;;;7.38;100.00
33506;BME280;19843;51.040;13.782;2022-11-15T04:23:32;126723.16;;;7.51;100.00
33506;BME280;19843;51.040;13.782;2022-11-15T04:26:37;124325.09;;;7.51;100.00
33506;BME280;19843;51.040;13.782;2022-11-15T04:29:04;123972.16;;;7.46;100.00
33506;BME280;19843;51.040;13.782;2022-11-15T04:31:50;128426.19;;;7.46;100.00
33506;BME280;19843;51.040;13.782;2022-11-15T04:34:18;128079.06;;;7.44;100.00
33506;BME280;19843;51.040;13.782;2022-11-15T04:36:46;127749.25;;;7.50;100.00
33506;BME280;19843;51.040;13.782;2022-11-15T04:39:33;126393.28;;;7.57;100.00
33506;BME280;19843;51.040;13.782;2022-11-15T04:42:00;125706.91;;;7.57;100.00
33506;BME280;19843;51.040;13.782;2022-11-15T04:44:28;128111.53;;;7.59;100.00
33506;BME280;19843;51.040;13.782;2022-11-15T04:46:56;128090.97;;;7.50;100.00
33506;BME280;19843;51.040;13.782;2022-11-15T04:49:23;128795.16;;;7.58;100.00
33506;BME280;19843;51.040;13.782;2022-11-15T04:51:51;128788.66;;;7.55;100.00
33506;BME280;19843;51.040;13.782;2022-11-15T04:54:19;123992.09;;;7.56;100.00
33506;BME280;19843;51.040;13.782;2022-11-15T04:56:48;127757.88;;;7.54;100.00
33506;BME280;19843;51.040;13.782;2022-11-15T04:59:15;128788.66;;;7.55;100.00
33506;BME280;19843;51.040;13.782;2022-11-15T05:01:42;127080.91;;;7.58;100.00
33506;BME280;19843;51.040;13.782;2022-11-15T05:04:11;128433.81;;;7.50;100.00
33506;BME280;19843;51.040;13.782;2022-11-15T05:06:50;125676.09;;;7.42;100.00
33506;BME280;19843;51.040;13.782;2022-11-15T05:09:19;128070.38;;;7.40;100.00
33506;BME280;19843;51.040;13.782;2022-11-15T05:11:49;128061.72;;;7.36;100.00
33506;BME280;19843;51.040;13.782;2022-11-15T05:14:16;124303.03;;;7.41;100.00
33506;BME280;19843;51.040;13.782;2022-11-15T05:16:44;122932.66;;;7.40;100.00
33506;BME280;19843;51.040;13.782;2022-11-15T05:19:11;129443.91;;;7.41;100.00
33506;BME280;19843;51.040;13.782;2022-11-15T05:21:39;123277.03;;;7.41;100.00
33506;BME280;19843;51.040;13.782;2022-11-15T05:24:09;125667.63;;;7.38;100.00
33506;BME280;19843;51.040;13.782;2022-11-15T05:26:37;122588.34;;;7.39;100.00
33506;BME280;19843;51.040;13.782;2022-11-15T05:29:06;127712.53;;;7.33;100.00
33506;BME280;19843;51.040;13.782;2022-11-15T05:31:33;129085.75;;;7.34;100.00
33506;BME280;19843;51.040;13.782;2022-11-15T05:34:03;128745.09;;;7.35;100.00
33506;BME280;19843;51.040;13.782;2022-11-15T05:36:35;129079.19;;;7.31;100.00
33506;BME280;19843;51.040;13.782;2022-11-15T05:39:04;128745.09;;;7.35;100.00
33506;BME280;19843;51.040;13.782;2022-11-15T05:41:37;128066.06;;;7.38;100.00
33506;BME280;19843;51.040;13.782;2022-11-15T05:44:09;128071.47;;;7.41;100.00
33506;BME280;19843;51.040;13.782;2022-11-15T05:46:39;128760.34;;;7.42;100.00
33506;BME280;19843;51.040;13.782;2022-11-15T05:49:11;130120.97;;;7.37;100.00
33506;BME280;19843;51.040;13.782;2022-11-15T05:51:41;126352.72;;;7.38;100.00
33506;BME280;19843;51.040;13.782;2022-11-15T05:54:10;127378.47;;;7.37;100.00
33506;BME280;19843;51.040;13.782;2022-11-15T05:56:38;127344.03;;;7.21;100.00
33506;BME280;19843;51.040;13.782;2022-11-15T05:59:08;125280.63;;;7.17;100.00
33506;BME280;19843;51.040;13.782;2022-11-15T06:01:36;126329.22;;;7.27;100.00
33506;BME280;19843;51.040;13.782;2022-11-15T06:04:06;122214.13;;;7.24;100.00
33506;BME280;19843;51.040;13.782;2022-11-15T06:06:33;126331.38;;;7.28;100.00
33506;BME280;19843;51.040;13.782;2022-11-15T06:09:01;125986.72;;;7.27;100.00
33506;BME280;19843;51.040;13.782;2022-11-15T06:11:28;125998.44;;;7.33;100.00
33506;BME280;19843;51.040;13.782;2022-11-15T06:13:56;124955.16;;;7.25;100.00
33506;BME280;19843;51.040;13.782;2022-11-15T06:16:25;122576.97;;;7.34;100.00
33506;BME280;19843;51.040;13.782;2022-11-15T06:18:52;127034.72;;;7.37;100.00
33506;BME280;19843;51.040;13.782;2022-11-15T06:21:20;122254.41;;;7.43;100.00
33506;BME280;19843;51.040;13.782;2022-11-15T06:23:48;122934.72;;;7.41;100.00
33506;BME280;19843;51.040;13.782;2022-11-15T06:26:15;125670.81;;;7.40;100.00
33506;BME280;19843;51.040;13.782;2022-11-15T06:28:43;126706.03;;;7.43;100.00
33506;BME280;19843;51.040;13.782;2022-11-15T06:31:11;128758.16;;;7.41;100.00
33506;BME280;19843;51.040;13.782;2022-11-15T06:33:40;129114.09;;;7.47;100.00
33506;BME280;19843;51.040;13.782;2022-11-15T06:36:10;126027.16;;;7.46;100.00
33506;BME280;19843;51.040;13.782;2022-11-15T06:38:43;124317.75;;;7.48;100.00
33506;BME280;19843;51.040;13.782;2022-11-15T06:41:14;127055.13;;;7.46;100.00
33506;BME280;19843;51.040;13.782;2022-11-15T06:43:43;124331.41;;;7.54;100.00
33506;BME280;19843;51.040;13.782;2022-11-15T06:46:10;128089.88;;;7.49;100.00
33506;BME280;19843;51.040;13.782;2022-11-15T06:48:39;127064.78;;;7.51;100.00
33506;BME280;19843;51.040;13.782;2022-11-15T06:51:07;127423.69;;;7.58;100.00
33506;BME280;19843;51.040;13.782;2022-11-15T06:53:35;129489.84;;;7.62;100.00
33506;BME280;19843;51.040;13.782;2022-11-15T06:56:04;126757.41;;;7.68;100.00
33506;BME280;19843;51.040;13.782;2022-11-15T06:58:32;132939.75;;;7.71;100.00
33506;BME280;19843;51.040;13.782;2022-11-15T07:01:00;133295.56;;;7.76;100.00
33506;BME280;19843;51.040;13.782;2022-11-15T07:03:29;129192.69;;;7.84;100.00
33506;BME280;19843;51.040;13.782;2022-11-15T07:05:58;134008.59;;;7.88;100.00
33506;BME280;19843;51.040;13.782;2022-11-15T07:08:32;135057.84;;;7.96;100.00
33506;BME280;19843;51.040;13.782;2022-11-15T07:11:01;134720.91;;;7.99;100.00
33506;BME280;19843;51.040;13.782;2022-11-15T07:13:31;138518.06;;;8.05;100.00
33506;BME280;19843;51.040;13.782;2022-11-15T07:16:02;144039.47;;;8.10;100.00
33506;BME280;19843;51.040;13.782;2022-11-15T07:18:29;141300.88;;;8.17;100.00
33506;BME280;19843;51.040;13.782;2022-11-15T07:21:01;145449.25;;;8.22;100.00
33506;BME280;19843;51.040;13.782;2022-11-15T07:23:30;151936.28;;;8.27;100.00
33506;BME280;19843;51.040;13.782;2022-11-15T07:25:59;152022.44;;;8.29;100.00
33506;BME280;19843;51.040;13.782;2022-11-15T07:28:27;152015.97;;;8.26;100.00
33506;BME280;19843;51.040;13.782;2022-11-15T07:30:55;152010.88;;;8.24;100.00
33506;BME280;19843;51.040;13.782;2022-11-15T07:33:22;152046.91;;;8.38;100.00
33506;BME280;19843;51.040;13.782;2022-11-15T07:35:50;152052.06;;;8.40;100.00
33506;BME280;19843;51.040;13.782;2022-11-15T07:38:19;152057.16;;;8.42;100.00
33506;BME280;19843;51.040;13.782;2022-11-15T07:40:47;152080.28;;;8.52;100.00
33506;BME280;19843;51.040;13.782;2022-11-15T07:43:22;152077.75;;;8.51;100.00
33506;BME280;19843;51.040;13.782;2022-11-15T07:45:50;152088.03;;;8.55;100.00
33506;BME280;19843;51.040;13.782;2022-11-15T07:48:24;152108.59;;;8.63;100.00
33506;BME280;19843;51.040;13.782;2022-11-15T07:51:05;152118.91;;;8.67;100.00
33506;BME280;19843;51.040;13.782;2022-11-15T07:53:40;152129.19;;;8.71;100.00
33506;BME280;19843;51.040;13.782;2022-11-15T07:56:08;152148.44;;;8.78;100.00
33506;BME280;19843;51.040;13.782;2022-11-15T07:58:36;152167.75;;;8.86;100.00
33506;BME280;19843;51.040;13.782;2022-11-15T08:01:04;152181.91;;;8.92;100.00
33506;BME280;19843;51.040;13.782;2022-11-15T08:03:33;152188.31;;;8.94;100.00
33506;BME280;19843;51.040;13.782;2022-11-15T08:06:01;152193.47;;;8.96;100.00
33506;BME280;19843;51.040;13.782;2022-11-15T08:08:29;152206.34;;;9.01;100.00
33506;BME280;19843;51.040;13.782;2022-11-15T08:10:58;152241.03;;;9.15;100.00
33506;BME280;19843;51.040;13.782;2022-11-15T08:13:26;152224.34;;;9.08;100.00
33506;BME280;19843;51.040;13.782;2022-11-15T08:15:57;152270.63;;;9.26;100.00
33506;BME280;19843;51.040;13.782;2022-11-15T08:18:25;152266.81;;;9.25;100.00
33506;BME280;19843;51.040;13.782;2022-11-15T08:20:52;152275.78;;;9.28;100.00
33506;BME280;19843;51.040;13.782;2022-11-15T08:23:20;152265.53;;;9.24;100.00
33506;BME280;19843;51.040;13.782;2022-11-15T08:25:47;152286.09;;;9.32;100.00
33506;BME280;19843;51.040;13.782;2022-11-15T08:28:16;152318.25;;;9.45;100.00
33506;BME280;19843;51.040;13.782;2022-11-15T08:30:44;152342.69;;;9.55;100.00
33506;BME280;19843;51.040;13.782;2022-11-15T08:33:13;152350.41;;;9.58;100.00
33506;BME280;19843;51.040;13.782;2022-11-15T08:35:41;152368.44;;;9.65;100.00
33506;BME280;19843;51.040;13.782;2022-11-15T08:38:09;152390.28;;;9.73;100.00
33506;BME280;19843;51.040;13.782;2022-11-15T08:40:37;152417.31;;;9.84;100.00
33506;BME280;19843;51.040;13.782;2022-11-15T08:43:05;152448.22;;;9.96;100.00
33506;BME280;19843;51.040;13.782;2022-11-15T08:45:35;152455.91;;;9.99;100.00
33506;BME280;19843;51.040;13.782;2022-11-15T08:48:03;152481.72;;;10.09;100.00
33506;BME280;19843;51.040;13.782;2022-11-15T08:50:30;152520.38;;;10.25;100.00
33506;BME280;19843;51.040;13.782;2022-11-15T08:53:04;152551.25;;;10.37;100.00
33506;BME280;19843;51.040;13.782;2022-11-15T08:55:32;152547.41;;;10.35;100.00
33506;BME280;19843;51.040;13.782;2022-11-15T08:58:00;152580.88;;;10.48;100.00
33506;BME280;19843;51.040;13.782;2022-11-15T09:00:28;152587.31;;;10.51;100.00
33506;BME280;19843;51.040;13.782;2022-11-15T09:02:57;152602.78;;;10.57;100.00
33506;BME280;19843;51.040;13.782;2022-11-15T09:05:25;152597.63;;;10.55;100.00
33506;BME280;19843;51.040;13.782;2022-11-15T09:07:54;152633.66;;;10.69;100.00
33506;BME280;19843;51.040;13.782;2022-11-15T09:10:22;152654.28;;;10.77;100.00
33506;BME280;19843;51.040;13.782;2022-11-15T09:12:50;152677.47;;;10.86;100.00
33506;BME280;19843;51.040;13.782;2022-11-15T09:15:18;152680.03;;;10.87;100.00
33506;BME280;19843;51.040;13.782;2022-11-15T09:17:46;152682.63;;;10.88;100.00
33506;BME280;19843;51.040;13.782;2022-11-15T09:20:15;152714.81;;;11.01;100.00
33506;BME280;19843;51.040;13.782;2022-11-15T09:22:43;152739.28;;;11.11;100.00
33506;BME280;19843;51.040;13.782;2022-11-15T09:25:10;152744.44;;;11.13;100.00
33506;BME280;19843;51.040;13.782;2022-11-15T09:27:38;152775.38;;;11.25;100.00
33506;BME280;19843;51.040;13.782;2022-11-15T09:30:06;152780.50;;;11.27;100.00
33506;BME280;19843;51.040;13.782;2022-11-15T09:32:34;152808.84;;;11.38;100.00
33506;BME280;19843;51.040;13.782;2022-11-15T09:35:05;152799.84;;;11.34;100.00
33506;BME280;19843;51.040;13.782;2022-11-15T09:37:34;152763.78;;;11.20;100.00
33506;BME280;19843;51.040;13.782;2022-11-15T09:40:02;152785.69;;;11.29;100.00
33506;BME280;19843;51.040;13.782;2022-11-15T09:42:43;152837.22;;;11.49;100.00
33506;BME280;19843;51.040;13.782;2022-11-15T09:45:20;152841.09;;;11.51;100.00
33506;BME280;19843;51.040;13.782;2022-11-15T09:48:12;152850.09;;;11.54;100.00
33506;BME280;19843;51.040;13.782;2022-11-15T09:50:48;152855.28;;;11.56;100.00
33506;BME280;19843;51.040;13.782;2022-11-15T09:53:22;152890.06;;;11.70;100.00
33506;BME280;19843;51.040;13.782;2022-11-15T09:56:16;152893.94;;;11.71;100.00
33506;BME280;19843;51.040;13.782;2022-11-15T09:58:50;152891.34;;;11.70;100.00
33506;BME280;19843;51.040;13.782;2022-11-15T10:01:33;152891.34;;;11.70;100.00
33506;BME280;19843;51.040;13.782;2022-11-15T10:04:03;152909.47;;;11.77;100.00
33506;BME280;19843;51.040;13.782;2022-11-15T10:06:40;152932.63;;;11.87;100.00
33506;BME280;19843;51.040;13.782;2022-11-15T10:09:15;152932.63;;;11.87;100.00
33506;BME280;19843;51.040;13.782;2022-11-15T10:11:49;152919.75;;;11.81;100.00
33506;BME280;19843;51.040;13.782;2022-11-15T10:14:18;152963.59;;;11.99;100.00
33506;BME280;19843;51.040;13.782;2022-11-15T10:17:06;152997.09;;;12.12;100.00
33506;BME280;19843;51.040;13.782;2022-11-15T10:19:43;153026.75;;;12.23;100.00
33506;BME280;19843;51.040;13.782;2022-11-15T10:22:25;153017.75;;;12.20;100.00
33506;BME280;19843;51.040;13.782;2022-11-15T10:25:11;153011.28;;;12.17;100.00
33506;BME280;19843;51.040;13.782;2022-11-15T10:27:40;152986.78;;;12.08;100.00
33506;BME280;19843;51.040;13.782;2022-11-15T10:30:12;153022.88;;;12.22;100.00
33506;BME280;19843;51.040;13.782;2022-11-15T10:32:42;153017.75;;;12.20;100.00
33506;BME280;19843;51.040;13.782;2022-11-15T10:35:19;153028.03;;;12.24;100.00
33506;BME280;19843;51.040;13.782;2022-11-15T10:37:47;153043.53;;;12.30;100.00
33506;BME280;19843;51.040;13.782;2022-11-15T10:40:19;153065.44;;;12.39;100.00
33506;BME280;19843;51.040;13.782;2022-11-15T10:42:48;153040.94;;;12.29;100.00
33506;BME280;19843;51.040;13.782;2022-11-15T10:45:32;153020.34;;;12.21;100.00
33506;BME280;19843;51.040;13.782;2022-11-15T10:48:20;152963.59;;;11.99;100.00
33506;BME280;19843;51.040;13.782;2022-11-15T10:50:50;152980.38;;;12.05;100.00
33506;BME280;19843;51.040;13.782;2022-11-15T10:53:23;152979.06;;;12.05;100.00
33506;BME280;19843;51.040;13.782;2022-11-15T10:55:54;153015.16;;;12.19;100.00
33506;BME280;19843;51.040;13.782;2022-11-15T10:58:32;153007.44;;;12.16;100.00
33506;BME280;19843;51.040;13.782;2022-11-15T11:01:12;153046.13;;;12.31;100.00
33506;BME280;19843;51.040;13.782;2022-11-15T11:03:42;153035.75;;;12.27;100.00
33506;BME280;19843;51.040;13.782;2022-11-15T11:06:12;153011.28;;;12.17;100.00
33506;BME280;19843;51.040;13.782;2022-11-15T11:08:55;153025.47;;;12.23;100.00
33506;BME280;19843;51.040;13.782;2022-11-15T11:11:24;153016.44;;;12.19;100.00
33506;BME280;19843;51.040;13.782;2022-11-15T11:13:52;153020.34;;;12.21;100.00
33506;BME280;19843;51.040;13.782;2022-11-15T11:16:38;152995.78;;;12.11;100.00
33506;BME280;19843;51.040;13.782;2022-11-15T11:19:18;152989.38;;;12.09;100.00
33506;BME280;19843;51.040;13.782;2022-11-15T11:21:55;152984.19;;;12.07;100.00
33506;BME280;19843;51.040;13.782;2022-11-15T11:24:32;153022.88;;;12.22;100.00
33506;BME280;19843;51.040;13.782;2022-11-15T11:27:24;153030.63;;;12.25;100.00
33506;BME280;19843;51.040;13.782;2022-11-15T11:30:03;153012.56;;;12.18;100.00
33506;BME280;19843;51.040;13.782;2022-11-15T11:32:47;153017.75;;;12.20;100.00
33506;BME280;19843;51.040;13.782;2022-11-15T11:35:24;152971.31;;;12.02;100.00
33506;BME280;19843;51.040;13.782;2022-11-15T11:38:03;152986.78;;;12.08;100.00
33506;BME280;19843;51.040;13.782;2022-11-15T11:40:38;152975.19;;;12.03;100.00
33506;BME280;19843;51.040;13.782;2022-11-15T11:43:15;152973.91;;;12.03;100.00
33506;BME280;19843;51.040;13.782;2022-11-15T11:48:42;152945.53;;;11.92;100.00
33506;BME280;19843;51.040;13.782;2022-11-15T11:51:17;152935.22;;;11.88;100.00
33506;BME280;19843;51.040;13.782;2022-11-15T11:53:52;152954.53;;;11.95;100.00
33506;BME280;19843;51.040;13.782;2022-11-15T11:56:25;152963.59;;;11.99;100.00
33506;BME280;19843;51.040;13.782;2022-11-15T11:58:57;152968.72;;;12.01;100.00
33506;BME280;19843;51.040;13.782;2022-11-15T12:01:30;152972.59;;;12.02;100.00
33506;BME280;19843;51.040;13.782;2022-11-15T12:04:03;152942.94;;;11.91;100.00
33506;BME280;19843;51.040;13.782;2022-11-15T12:06:35;152932.63;;;11.87;100.00
33506;BME280;19843;51.040;13.782;2022-11-15T12:09:12;152904.28;;;11.75;100.00
33506;BME280;19843;51.040;13.782;2022-11-15T12:11:50;152906.88;;;11.76;100.00
33506;BME280;19843;51.040;13.782;2022-11-15T12:14:31;152883.63;;;11.67;100.00
33506;BME280;19843;51.040;13.782;2022-11-15T12:16:59;152891.34;;;11.70;100.00
33506;BME280;19843;51.040;13.782;2022-11-15T12:19:28;152873.28;;;11.63;100.00
33506;BME280;19843;51.040;13.782;2022-11-15T12:22:00;152872.03;;;11.63;100.00
33506;BME280;19843;51.040;13.782;2022-11-15T12:24:38;152902.97;;;11.75;100.00
33506;BME280;19843;51.040;13.782;2022-11-15T12:27:15;152910.75;;;11.78;100.00
33506;BME280;19843;51.040;13.782;2022-11-15T12:29:55;152875.88;;;11.64;100.00
33506;BME280;19843;51.040;13.782;2022-11-15T12:32:27;152855.28;;;11.56;100.00
33506;BME280;19843;51.040;13.782;2022-11-15T12:34:56;152842.38;;;11.51;100.00
33506;BME280;19843;51.040;13.782;2022-11-15T12:37:52;152834.63;;;11.48;100.00
33506;BME280;19843;51.040;13.782;2022-11-15T12:40:36;152839.78;;;11.50;100.00
33506;BME280;19843;51.040;13.782;2022-11-15T12:46:18;152865.56;;;11.60;100.00
33506;BME280;19843;51.040;13.782;2022-11-15T12:48:52;152860.41;;;11.58;100.00
33506;BME280;19843;51.040;13.782;2022-11-15T12:51:22;152847.50;;;11.53;100.00
33506;BME280;19843;51.040;13.782;2022-11-15T12:57:28;152873.28;;;11.63;100.00
33506;BME280;19843;51.040;13.782;2022-11-15T12:59:57;152839.78;;;11.50;100.00
33506;BME280;19843;51.040;13.782;2022-11-15T13:02:29;152844.97;;;11.52;100.00
33506;BME280;19843;51.040;13.782;2022-11-15T13:05:26;152860.41;;;11.58;100.00
33506;BME280;19843;51.040;13.782;2022-11-15T13:08:07;152850.09;;;11.54;100.00
33506;BME280;19843;51.040;13.782;2022-11-15T13:10:35;152834.63;;;11.48;100.00